createdAt,value
2023-04-03T00:03:15.100Z,94407.00
2023-04-03T00:07:18.714Z,94400.00
2023-04-03T00:11:24.024Z,94362.00
2023-04-03T00:15:33.746Z,94406.00
2023-04-03T00:19:37.520Z,94400.00
2023-04-03T00:23:41.030Z,94389.00
2023-04-03T00:27:47.051Z,94413.00
2023-04-03T00:31:50.692Z,94418.00
2023-04-03T00:35:54.401Z,94418.00
2023-04-03T00:39:57.952Z,94389.00
2023-04-03T00:44:02.995Z,94421.00
2023-04-03T00:48:09.471Z,94412.00
2023-04-03T00:52:19.831Z,94413.00
2023-04-03T00:56:27.328Z,94390.00
2023-04-03T01:00:32.972Z,94407.00
2023-04-03T01:04:39.067Z,94391.00
2023-04-03T01:08:42.876Z,94403.00
2023-04-03T01:12:48.525Z,94415.00
2023-04-03T01:16:56.693Z,94423.00
2023-04-03T01:21:48.011Z,94413.00
2023-04-03T01:25:53.170Z,94400.00
2023-04-03T01:29:57.167Z,94410.00
2023-04-03T01:34:27.613Z,94411.00
2023-04-03T01:38:35.599Z,94404.00
2023-04-03T01:42:39.236Z,94409.00
2023-04-03T01:46:43.488Z,94426.00
2023-04-03T01:50:51.466Z,94415.00
2023-04-03T01:54:56.164Z,94425.00
2023-04-03T01:58:59.785Z,94434.00
2023-04-03T02:03:29.043Z,94414.00
2023-04-03T02:07:34.133Z,94408.00
2023-04-03T02:11:37.654Z,94429.00
2023-04-03T02:15:46.467Z,94415.00
2023-04-03T02:19:53.549Z,94438.00
2023-04-03T02:23:58.767Z,94427.00
2023-04-03T02:28:02.559Z,94416.00
2023-04-03T02:32:06.736Z,94392.00
2023-04-03T02:36:11.438Z,94413.00
2023-04-03T02:40:21.029Z,94408.00
2023-04-03T02:44:24.739Z,94406.00
2023-04-03T02:48:30.044Z,94419.00
2023-04-03T02:52:33.579Z,94409.00
2023-04-03T02:56:38.605Z,94425.00
2023-04-03T03:00:42.975Z,94404.00
2023-04-03T03:05:14.180Z,94415.00
2023-04-03T03:09:17.847Z,94397.00
2023-04-03T03:13:22.763Z,94398.00
2023-04-03T03:17:27.334Z,94388.00
2023-04-03T03:21:30.969Z,94409.00
2023-04-03T03:25:40.868Z,94437.00
2023-04-03T03:29:46.712Z,94424.00
2023-04-03T03:33:51.178Z,94422.00
2023-04-03T03:38:19.943Z,94429.00
2023-04-03T03:42:23.504Z,94425.00
2023-04-03T03:46:28.700Z,94420.00
2023-04-03T03:50:57.793Z,94421.00
2023-04-03T03:55:27.324Z,94420.00
2023-04-03T03:59:34.069Z,94414.00
2023-04-03T04:03:39.473Z,94433.00
2023-04-03T04:13:27.598Z,94423.00
2023-04-03T04:17:31.247Z,94424.00
2023-04-03T04:21:45.064Z,94426.00
2023-04-03T04:25:48.928Z,94398.00
2023-04-03T04:29:52.989Z,94411.00
2023-04-03T04:34:02.404Z,94429.00
2023-04-03T04:38:09.847Z,94450.00
2023-04-03T04:42:16.008Z,94454.00
2023-04-03T04:46:35.283Z,94438.00
2023-04-03T04:50:39.595Z,94435.00
2023-04-03T04:54:44.843Z,94433.00
2023-04-03T04:59:13.917Z,94443.00
2023-04-03T05:03:41.545Z,94435.00
2023-04-03T05:08:10.963Z,94444.00
2023-04-03T05:12:18.877Z,94443.00
2023-04-03T05:16:29.527Z,94454.00
2023-04-03T05:20:33.541Z,94453.00
2023-04-03T05:25:02.931Z,94463.00
2023-04-03T05:29:29.613Z,94466.00
2023-04-03T05:33:36.669Z,94463.00
2023-04-03T05:37:43.430Z,94462.00
2023-04-03T05:42:13.743Z,94464.00
2023-04-03T05:46:57.788Z,94459.00
2023-04-03T05:51:03.690Z,94465.00
2023-04-03T05:55:08.592Z,94451.00
2023-04-03T05:59:18.868Z,94478.00
2023-04-03T06:03:23.682Z,94459.00
2023-04-03T06:07:31.512Z,94470.00
2023-04-03T06:11:35.022Z,94438.00
2023-04-03T06:15:40.925Z,94475.00
2023-04-03T06:19:47.917Z,94480.00
2023-04-03T06:23:53.809Z,94491.00
2023-04-03T06:27:57.624Z,94493.00
2023-04-03T06:32:27.645Z,94499.00
2023-04-03T06:36:31.525Z,94493.00
2023-04-03T06:40:36.998Z,94486.00
2023-04-03T06:44:41.912Z,94497.00
2023-04-03T06:48:46.060Z,94511.00
2023-04-03T06:52:49.585Z,94512.00
2023-04-03T06:57:20.716Z,94506.00
2023-04-03T07:01:45.939Z,94504.00
2023-04-03T07:05:49.411Z,94486.00
2023-04-03T07:09:55.928Z,94518.00
2023-04-03T07:14:01.171Z,94527.00
2023-04-03T07:18:05.657Z,94509.00
2023-04-03T07:22:34.009Z,94533.00
2023-04-03T07:26:38.813Z,94535.00
2023-04-03T07:35:20.182Z,94524.00
2023-04-03T07:39:23.628Z,94552.00
2023-04-03T07:43:27.126Z,94535.00
2023-04-03T07:47:36.608Z,94531.00
2023-04-03T07:51:40.968Z,94552.00
2023-04-03T07:55:45.119Z,94548.00
2023-04-03T07:59:49.727Z,94539.00
2023-04-03T08:03:54.797Z,94520.00
2023-04-03T08:08:49.771Z,94546.00
2023-04-03T08:12:53.285Z,94529.00
2023-04-03T08:16:57.053Z,94529.00
2023-04-03T08:21:08.593Z,94551.00
2023-04-03T08:25:12.246Z,94519.00
2023-04-03T08:29:15.908Z,94540.00
2023-04-03T08:33:19.553Z,94546.00
2023-04-03T08:37:24.421Z,94551.00
2023-04-03T08:41:38.375Z,94541.00
2023-04-03T08:50:32.803Z,94532.00
2023-04-03T08:54:50.905Z,94556.00
2023-04-03T08:58:59.332Z,94541.00
2023-04-03T09:03:15.451Z,94556.00
2023-04-03T09:07:25.892Z,94557.00
2023-04-03T09:11:55.720Z,94572.00
2023-04-03T09:15:59.611Z,94554.00
2023-04-03T09:20:21.490Z,94576.00
2023-04-03T09:24:26.473Z,94557.00
2023-04-03T09:28:42.619Z,94579.00
2023-04-03T09:32:53.179Z,94568.00
2023-04-03T09:36:58.888Z,94585.00
2023-04-03T09:41:08.582Z,94577.00
2023-04-03T09:45:34.217Z,94561.00
2023-04-03T09:49:37.725Z,94563.00
2023-04-03T09:53:42.936Z,94553.00
2023-04-03T09:57:53.658Z,94571.00
2023-04-03T10:02:08.598Z,94571.00
2023-04-03T10:06:36.597Z,94577.00
2023-04-03T10:10:41.588Z,94585.00
2023-04-03T10:15:04.297Z,94563.00
2023-04-03T10:19:35.094Z,94589.00
2023-04-03T10:23:47.099Z,94586.00
2023-04-03T10:28:01.007Z,94553.00
2023-04-03T10:32:26.735Z,94592.00
2023-04-03T10:36:53.650Z,94596.00
2023-04-03T10:41:04.850Z,94581.00
2023-04-03T10:45:40.458Z,94586.00
2023-04-03T10:50:05.339Z,94565.00
2023-04-03T10:54:39.076Z,94590.00
2023-04-03T10:58:53.392Z,94588.00
2023-04-03T11:03:37.859Z,94604.00
2023-04-03T11:07:48.484Z,94604.00
2023-04-03T11:11:55.733Z,94601.00
2023-04-03T11:16:00.316Z,94580.00
2023-04-03T11:20:34.595Z,94609.00
2023-04-03T11:24:43.552Z,94589.00
2023-04-03T11:28:48.788Z,94601.00
2023-04-03T11:33:14.997Z,94582.00
2023-04-03T11:37:34.160Z,94578.00
2023-04-03T11:41:38.265Z,94560.00
2023-04-03T11:46:00.149Z,94578.00
2023-04-03T11:50:06.431Z,94579.00
2023-04-03T11:54:45.758Z,94585.00
2023-04-03T11:59:27.209Z,94579.00
2023-04-03T12:04:11.847Z,94585.00
2023-04-03T12:08:26.482Z,94568.00
2023-04-03T12:12:54.036Z,94565.00
2023-04-03T12:17:04.939Z,94584.00
2023-04-03T12:21:09.869Z,94585.00
2023-04-03T12:25:50.885Z,94573.00
2023-04-03T12:29:58.998Z,94559.00
2023-04-03T12:34:32.787Z,94562.00
2023-04-03T12:39:08.433Z,94575.00
2023-04-03T12:48:57.340Z,94568.00
2023-04-03T12:57:49.042Z,94569.00
2023-04-03T13:02:00.431Z,94563.00
2023-04-03T13:06:06.838Z,94558.00
2023-04-03T13:10:18.172Z,94545.00
2023-04-03T13:14:24.443Z,94558.00
2023-04-03T13:18:32.234Z,94557.00
2023-04-03T13:22:44.770Z,94563.00
2023-04-03T13:26:48.290Z,94565.00
2023-04-03T13:31:08.804Z,94538.00
2023-04-03T13:35:35.830Z,94546.00
2023-04-03T13:39:42.172Z,94540.00
2023-04-03T13:43:45.731Z,94544.00
2023-04-03T13:47:53.939Z,94565.00
2023-04-03T13:52:07.321Z,94555.00
2023-04-03T13:56:30.899Z,94546.00
2023-04-03T14:00:40.863Z,94541.00
2023-04-03T14:04:51.912Z,94529.00
2023-04-03T14:10:09.957Z,94544.00
2023-04-03T14:14:18.011Z,94541.00
2023-04-03T14:18:22.828Z,94522.00
2023-04-03T14:22:47.414Z,94551.00
2023-04-03T14:26:51.812Z,94559.00
2023-04-03T14:30:56.894Z,94541.00
2023-04-03T14:35:00.653Z,94534.00
2023-04-03T14:39:06.072Z,94531.00
2023-04-03T14:43:13.116Z,94539.00
2023-04-03T14:47:30.565Z,94545.00
2023-04-03T14:51:35.055Z,94541.00
2023-04-03T14:56:16.792Z,94570.00
2023-04-03T15:00:22.114Z,94564.00
2023-04-03T15:04:27.598Z,94567.00
2023-04-03T15:08:31.880Z,94586.00
2023-04-03T15:12:35.485Z,94563.00
2023-04-03T15:16:40.219Z,94580.00
2023-04-03T15:20:46.576Z,94556.00
2023-04-03T15:24:50.050Z,94574.00
2023-04-03T15:29:21.349Z,94583.00
2023-04-03T15:33:49.873Z,94577.00
2023-04-03T15:37:54.716Z,94573.00
2023-04-03T15:42:00.930Z,94550.00
2023-04-03T15:46:29.914Z,94579.00
2023-04-03T15:50:34.162Z,94595.00
2023-04-03T15:54:39.246Z,94557.00
2023-04-03T15:58:42.697Z,94578.00
2023-04-03T16:02:49.296Z,94561.00
2023-04-03T16:06:53.383Z,94595.00
2023-04-03T16:11:28.652Z,94598.00
2023-04-03T16:15:32.862Z,94584.00
2023-04-03T16:19:36.494Z,94568.00
2023-04-03T16:23:40.186Z,94595.00
2023-04-03T16:27:45.412Z,94595.00
2023-04-03T16:31:49.082Z,94582.00
2023-04-03T16:35:57.094Z,94582.00
2023-04-03T16:40:00.832Z,94588.00
2023-04-03T16:44:06.350Z,94589.00
2023-04-03T16:48:11.765Z,94592.00
2023-04-03T16:52:16.012Z,94582.00
2023-04-03T16:56:19.787Z,94603.00
2023-04-03T17:00:54.735Z,94603.00
2023-04-03T17:05:03.284Z,94571.00
2023-04-03T17:09:32.721Z,94598.00
2023-04-03T17:14:02.779Z,94603.00
2023-04-03T17:18:25.025Z,94596.00
2023-04-03T17:22:29.547Z,94592.00
2023-04-03T17:26:33.153Z,94597.00
2023-04-03T17:31:03.025Z,94608.00
2023-04-03T17:35:18.304Z,94600.00
2023-04-03T17:39:21.933Z,94608.00
2023-04-03T17:43:25.600Z,94611.00
2023-04-03T17:47:54.909Z,94610.00
2023-04-03T17:52:32.068Z,94619.00
2023-04-03T17:56:35.755Z,94621.00
2023-04-03T18:00:39.375Z,94625.00
2023-04-03T18:04:43.041Z,94611.00
2023-04-03T18:08:55.938Z,94628.00
2023-04-03T18:12:59.382Z,94639.00
2023-04-03T18:17:02.910Z,94636.00
2023-04-03T18:21:09.824Z,94646.00
2023-04-03T18:25:16.781Z,94619.00
2023-04-03T18:29:20.999Z,94654.00
2023-04-03T18:33:25.801Z,94644.00
2023-04-03T18:37:29.402Z,94631.00
2023-04-03T18:41:36.710Z,94652.00
2023-04-03T18:45:40.604Z,94632.00
2023-04-03T18:49:44.776Z,94665.00
2023-04-03T18:53:48.397Z,94650.00
2023-04-03T18:58:01.492Z,94654.00
2023-04-03T19:02:06.481Z,94645.00
2023-04-03T19:06:10.110Z,94647.00
2023-04-03T19:10:17.472Z,94664.00
2023-04-03T19:14:22.516Z,94677.00
2023-04-03T19:18:50.820Z,94683.00
2023-04-03T19:23:18.903Z,94685.00
2023-04-03T19:27:22.404Z,94680.00
2023-04-03T19:31:27.444Z,94675.00
2023-04-03T19:35:33.174Z,94671.00
2023-04-03T19:39:38.554Z,94666.00
2023-04-03T19:43:42.819Z,94663.00
2023-04-03T19:48:01.634Z,94676.00
2023-04-03T19:52:05.667Z,94672.00
2023-04-03T19:56:09.322Z,94683.00
2023-04-03T20:00:19.252Z,94673.00
2023-04-03T20:04:24.222Z,94684.00
2023-04-03T20:08:53.805Z,94692.00
2023-04-03T20:12:57.474Z,94679.00
2023-04-03T20:17:00.905Z,94699.00
2023-04-03T20:21:12.325Z,94694.00
2023-04-03T20:25:23.986Z,94692.00
2023-04-03T20:29:43.463Z,94701.00
2023-04-03T20:33:48.754Z,94670.00
2023-04-03T20:37:53.601Z,94701.00
2023-04-03T20:42:22.654Z,94698.00
2023-04-03T20:46:48.900Z,94685.00
2023-04-03T20:51:21.427Z,94691.00
2023-04-03T20:55:39.780Z,94681.00
2023-04-03T20:59:43.878Z,94685.00
2023-04-03T21:03:48.204Z,94706.00
2023-04-03T21:08:28.953Z,94685.00
2023-04-03T21:13:09.602Z,94689.00
2023-04-03T21:17:12.678Z,94675.00
2023-04-03T21:21:36.442Z,94681.00
2023-04-03T21:25:40.172Z,94674.00
2023-04-03T21:29:43.884Z,94668.00
2023-04-03T21:34:14.192Z,94676.00
2023-04-03T21:38:19.101Z,94665.00
2023-04-03T21:42:22.587Z,94683.00
2023-04-03T21:46:27.803Z,94646.00
2023-04-03T21:50:31.890Z,94658.00
2023-04-03T21:54:36.805Z,94653.00
2023-04-03T21:58:40.419Z,94658.00
2023-04-03T22:02:44.018Z,94645.00
2023-04-03T22:06:47.727Z,94621.00
2023-04-03T22:10:53.151Z,94644.00
2023-04-03T22:14:56.734Z,94648.00
2023-04-03T22:19:27.855Z,94644.00
2023-04-03T22:23:33.024Z,94648.00
2023-04-03T22:27:37.932Z,94609.00
2023-04-03T22:31:41.862Z,94640.00
2023-04-03T22:35:49.165Z,94628.00
2023-04-03T22:39:54.034Z,94593.00
2023-04-03T22:43:59.008Z,94609.00
2023-04-03T22:48:02.780Z,94621.00
2023-04-03T22:52:06.570Z,94622.00
2023-04-03T22:56:11.150Z,94594.00
2023-04-03T23:00:17.684Z,94616.00
2023-04-03T23:04:21.286Z,94622.00
2023-04-03T23:09:40.074Z,94614.00
2023-04-03T23:13:44.095Z,94618.00
2023-04-03T23:17:51.139Z,94623.00
2023-04-03T23:22:19.975Z,94606.00
2023-04-03T23:26:28.107Z,94594.00
2023-04-03T23:30:31.613Z,94614.00
2023-04-03T23:34:36.610Z,94618.00
2023-04-03T23:38:40.246Z,94580.00
2023-04-03T23:42:43.819Z,94582.00
2023-04-03T23:46:47.283Z,94588.00
2023-04-03T23:51:18.092Z,94592.00
2023-04-03T23:55:27.197Z,94569.00
2023-04-03T23:59:31.288Z,94571.00
